Gaines, Michigan
Current Conditions -  °F | °C
As of 7:53 PM on Thursday 18 Dec 2014 (Local Time) from KFNT Reporting Station
Overcast Overcast  
Wind Chill: 24°   Ceiling: 800
Heat Index: 30°   Visibility: 8mi
Dew Point: 26°   Wind: 6mph
Humidity: 85%   Direction: 10°N
Pressure: 30.18"   Gusts: NA
Location:  42.87°N, 83.91°W
Report Text: KFNT 190053Z 01005KT 8SM OVC008 M01/M03 A3018 RMK AO2 CIG 005V011 SLP231 I1001 T10111033
Loading
Personal Weather Stations






























Interactive Weather Map New forecast layout! Learn more

10-Day Weather Forecast

Advertisements
Track Severe Weather on mobile